createdAt,value
2022-10-17T00:02:13.433Z,99.70
2022-10-17T00:04:40.024Z,100.00
2022-10-17T00:07:06.599Z,100.00
2022-10-17T00:09:33.164Z,99.73
2022-10-17T00:11:59.733Z,100.00
2022-10-17T00:14:27.695Z,99.76
2022-10-17T00:16:54.255Z,99.69
2022-10-17T00:19:20.811Z,99.54
2022-10-17T00:21:49.372Z,99.61
2022-10-17T00:24:15.930Z,100.00
2022-10-17T00:26:42.563Z,99.83
2022-10-17T00:29:09.301Z,99.98
2022-10-17T00:31:37.302Z,99.67
2022-10-17T00:34:03.852Z,99.97
2022-10-17T00:36:30.388Z,99.76
2022-10-17T00:38:58.851Z,99.35
2022-10-17T00:41:27.771Z,99.49
2022-10-17T00:43:57.682Z,99.85
2022-10-17T00:46:26.595Z,100.00
2022-10-17T00:48:56.815Z,99.92
2022-10-17T00:51:29.224Z,100.00
2022-10-17T00:53:56.331Z,100.00
2022-10-17T00:56:23.237Z,100.00
2022-10-17T00:58:49.931Z,100.00
2022-10-17T01:01:16.788Z,100.00
2022-10-17T01:03:43.749Z,100.00
2022-10-17T01:06:11.667Z,99.98
2022-10-17T01:08:38.547Z,99.77
2022-10-17T01:11:20.497Z,99.88
2022-10-17T01:13:51.968Z,99.68
2022-10-17T01:16:26.564Z,99.75
2022-10-17T01:19:02.830Z,99.41
2022-10-17T01:21:39.051Z,99.58
2022-10-17T01:24:40.789Z,99.62
2022-10-17T01:27:39.847Z,99.33
2022-10-17T01:30:32.424Z,99.31
2022-10-17T01:33:05.368Z,99.53
2022-10-17T01:35:39.670Z,99.38
2022-10-17T01:38:10.659Z,99.33
2022-10-17T01:40:42.630Z,99.36
2022-10-17T01:43:13.782Z,99.18
2022-10-17T01:45:45.079Z,98.93
2022-10-17T01:48:17.519Z,99.32
2022-10-17T01:50:49.074Z,98.92
2022-10-17T01:53:20.102Z,99.06
2022-10-17T01:55:50.131Z,98.79
2022-10-17T01:58:21.924Z,98.50
2022-10-17T02:00:50.285Z,98.21
2022-10-17T02:03:20.958Z,98.72
2022-10-17T02:05:47.513Z,98.94
2022-10-17T02:08:14.215Z,99.06
2022-10-17T02:10:48.652Z,99.22
2022-10-17T02:13:25.884Z,99.27
2022-10-17T02:16:16.659Z,99.72
2022-10-17T02:19:08.603Z,99.58
2022-10-17T02:21:45.054Z,99.07
2022-10-17T02:24:18.518Z,98.48
2022-10-17T02:26:52.044Z,98.36
2022-10-17T02:29:22.366Z,98.71
2022-10-17T02:31:51.965Z,98.93
2022-10-17T02:34:25.314Z,99.12
2022-10-17T02:36:57.819Z,99.17
2022-10-17T02:39:25.989Z,99.26
2022-10-17T02:41:56.577Z,99.43
2022-10-17T02:44:24.698Z,98.54
2022-10-17T02:46:55.331Z,98.34
2022-10-17T02:49:28.058Z,98.19
2022-10-17T02:52:01.959Z,98.16
2022-10-17T02:54:36.076Z,98.12
2022-10-17T02:57:08.703Z,98.48
2022-10-17T02:59:36.867Z,98.09
2022-10-17T03:02:04.379Z,98.86
2022-10-17T03:04:32.803Z,99.34
2022-10-17T03:06:59.382Z,99.00
2022-10-17T03:09:25.941Z,99.24
2022-10-17T03:11:52.503Z,99.36
2022-10-17T03:14:19.036Z,99.53
2022-10-17T03:16:45.719Z,99.83
2022-10-17T03:19:12.240Z,99.68
2022-10-17T03:21:40.118Z,99.05
2022-10-17T03:24:07.349Z,99.09
2022-10-17T03:26:34.107Z,99.17
2022-10-17T03:29:00.750Z,99.18
2022-10-17T03:31:27.295Z,99.50
2022-10-17T03:33:53.828Z,99.22
2022-10-17T03:36:20.375Z,99.55
2022-10-17T03:38:48.474Z,99.09
2022-10-17T03:41:14.988Z,98.76
2022-10-17T03:43:41.535Z,99.30
2022-10-17T03:46:08.254Z,99.57
2022-10-17T03:48:34.870Z,99.23
2022-10-17T03:51:03.743Z,98.89
2022-10-17T03:53:30.291Z,99.18
2022-10-17T03:56:09.023Z,99.17
2022-10-17T03:58:35.589Z,99.61
2022-10-17T04:01:04.306Z,99.00
2022-10-17T04:03:30.956Z,99.31
2022-10-17T04:05:58.551Z,99.83
2022-10-17T04:08:25.124Z,99.45
2022-10-17T04:10:51.687Z,99.41
2022-10-17T04:13:19.550Z,99.43
2022-10-17T04:15:54.170Z,98.90
2022-10-17T04:18:20.698Z,98.62
2022-10-17T04:20:47.222Z,97.97
2022-10-17T04:23:13.785Z,98.48
2022-10-17T04:25:40.321Z,98.55
2022-10-17T04:28:06.969Z,97.59
2022-10-17T04:30:34.838Z,98.17
2022-10-17T04:33:01.393Z,98.21
2022-10-17T04:35:28.039Z,97.90
2022-10-17T04:37:54.581Z,97.96
2022-10-17T04:40:21.384Z,98.03
2022-10-17T04:42:48.023Z,98.16
2022-10-17T04:45:14.675Z,98.12
2022-10-17T04:47:42.551Z,98.32
2022-10-17T04:50:09.498Z,98.05
2022-10-17T04:52:36.202Z,97.96
2022-10-17T04:55:02.882Z,98.30
2022-10-17T04:57:29.464Z,98.34
2022-10-17T04:59:56.013Z,97.57
2022-10-17T05:02:22.610Z,97.29
2022-10-17T05:04:50.493Z,96.90
2022-10-17T05:07:17.050Z,96.24
2022-10-17T05:09:43.605Z,95.87
2022-10-17T05:12:10.525Z,96.05
2022-10-17T05:14:37.119Z,96.16
2022-10-17T05:17:03.687Z,96.90
2022-10-17T05:19:30.239Z,96.90
2022-10-17T05:21:58.127Z,97.53
2022-10-17T05:24:24.640Z,98.67
2022-10-17T05:26:51.153Z,99.32
2022-10-17T05:29:17.881Z,99.45
2022-10-17T05:31:44.464Z,99.16
2022-10-17T05:34:13.176Z,98.94
2022-10-17T05:36:40.540Z,99.07
2022-10-17T05:39:08.421Z,98.73
2022-10-17T05:41:34.978Z,98.54
2022-10-17T05:44:04.628Z,97.98
2022-10-17T05:46:32.223Z,97.61
2022-10-17T05:48:58.749Z,97.33
2022-10-17T05:51:25.306Z,96.83
2022-10-17T05:53:51.827Z,96.41
2022-10-17T05:56:19.692Z,96.78
2022-10-17T05:58:51.614Z,96.57
2022-10-17T06:01:19.867Z,96.60
2022-10-17T06:03:46.442Z,97.38
2022-10-17T06:06:14.577Z,97.00
2022-10-17T06:08:41.427Z,97.72
2022-10-17T06:11:10.223Z,98.22
2022-10-17T06:13:39.517Z,98.83
2022-10-17T06:16:06.834Z,99.34
2022-10-17T06:18:33.640Z,99.80
2022-10-17T06:21:03.113Z,100.00
2022-10-17T06:23:29.679Z,100.00
2022-10-17T06:25:58.885Z,100.00
2022-10-17T06:28:25.484Z,100.00
2022-10-17T06:30:53.417Z,100.00
2022-10-17T06:33:20.088Z,100.00
2022-10-17T06:35:51.156Z,99.17
2022-10-17T06:38:17.689Z,98.82
2022-10-17T06:40:44.249Z,98.56
2022-10-17T06:43:10.775Z,98.46
2022-10-17T06:45:38.428Z,98.25
2022-10-17T06:48:06.498Z,98.42
2022-10-17T06:50:33.062Z,98.18
2022-10-17T06:52:59.651Z,98.03
2022-10-17T06:55:26.188Z,97.59
2022-10-17T06:57:56.395Z,97.53
2022-10-17T07:00:22.963Z,97.38
2022-10-17T07:02:49.734Z,97.44
2022-10-17T07:05:17.880Z,97.45
2022-10-17T07:07:45.632Z,97.52
2022-10-17T07:10:14.291Z,97.46
2022-10-17T07:12:40.799Z,97.43
2022-10-17T07:15:08.158Z,97.29
2022-10-17T07:17:34.699Z,97.08
2022-10-17T07:20:01.244Z,97.58
2022-10-17T07:22:29.262Z,97.82
2022-10-17T07:24:55.972Z,97.89
2022-10-17T07:27:22.554Z,97.96
2022-10-17T07:29:49.075Z,98.36
2022-10-17T07:32:15.615Z,98.29
2022-10-17T07:34:42.129Z,98.80
2022-10-17T07:37:08.652Z,98.55
2022-10-17T07:39:36.518Z,98.57
2022-10-17T07:42:03.020Z,98.58
2022-10-17T07:44:29.531Z,97.90
2022-10-17T07:46:56.049Z,97.06
2022-10-17T07:49:22.593Z,96.91
2022-10-17T07:51:49.103Z,96.76
2022-10-17T07:54:15.678Z,96.19
2022-10-17T07:56:43.552Z,95.65
2022-10-17T07:59:10.086Z,94.67
2022-10-17T08:01:36.788Z,93.73
2022-10-17T08:04:03.320Z,93.37
2022-10-17T08:06:29.842Z,93.52
2022-10-17T08:08:56.383Z,92.69
2022-10-17T08:11:22.914Z,92.05
2022-10-17T08:13:50.791Z,92.09
2022-10-17T08:16:17.286Z,91.30
2022-10-17T08:18:44.088Z,90.94
2022-10-17T08:21:12.047Z,90.03
2022-10-17T08:23:38.655Z,89.73
2022-10-17T08:26:07.186Z,88.88
2022-10-17T08:28:35.390Z,89.03
2022-10-17T08:31:05.046Z,88.78
2022-10-17T08:33:31.763Z,88.56
2022-10-17T08:35:58.847Z,88.89
2022-10-17T08:38:27.796Z,89.49
2022-10-17T08:40:57.613Z,89.10
2022-10-17T08:43:48.254Z,89.20
2022-10-17T08:46:16.863Z,88.84
2022-10-17T08:48:46.696Z,87.67
2022-10-17T08:51:18.116Z,88.74
2022-10-17T08:53:49.592Z,89.32
2022-10-17T08:56:24.917Z,89.99
2022-10-17T08:59:05.263Z,89.58
2022-10-17T09:01:42.000Z,89.37
2022-10-17T09:04:38.336Z,88.69
2022-10-17T09:07:13.310Z,88.67
2022-10-17T09:09:50.751Z,87.52
2022-10-17T09:12:22.034Z,87.41
2022-10-17T09:15:08.307Z,87.37
2022-10-17T09:17:46.369Z,86.91
2022-10-17T09:20:17.503Z,87.09
2022-10-17T09:22:50.151Z,86.36
2022-10-17T09:25:19.560Z,86.27
2022-10-17T09:27:49.216Z,86.22
2022-10-17T09:30:44.276Z,85.81
2022-10-17T09:33:28.177Z,85.57
2022-10-17T09:36:03.997Z,85.79
2022-10-17T09:38:39.421Z,85.28
2022-10-17T09:41:39.222Z,84.91
2022-10-17T09:44:13.781Z,84.33
2022-10-17T09:46:40.577Z,85.07
2022-10-17T09:49:16.515Z,84.48
2022-10-17T09:51:44.520Z,84.81
2022-10-17T09:54:20.376Z,84.73
2022-10-17T09:57:01.644Z,84.14
2022-10-17T09:59:33.958Z,81.93
2022-10-17T10:02:17.009Z,81.50
2022-10-17T10:05:04.142Z,81.06
2022-10-17T10:07:34.085Z,78.06
2022-10-17T10:10:01.320Z,75.94
2022-10-17T10:12:30.827Z,76.59
2022-10-17T10:14:58.497Z,77.68
2022-10-17T10:17:29.085Z,78.87
2022-10-17T10:19:56.951Z,80.93
2022-10-17T10:22:23.491Z,80.59
2022-10-17T10:25:07.812Z,77.82
2022-10-17T10:27:35.099Z,76.89
2022-10-17T10:30:02.454Z,74.54
2022-10-17T10:32:32.196Z,73.83
2022-10-17T10:35:05.895Z,77.87
2022-10-17T10:37:37.435Z,79.14
2022-10-17T10:40:06.620Z,76.17
2022-10-17T10:42:35.795Z,75.93
2022-10-17T10:45:05.035Z,75.36
2022-10-17T10:47:33.002Z,75.72
2022-10-17T10:50:24.624Z,76.11
2022-10-17T10:53:02.504Z,75.61
2022-10-17T10:55:34.245Z,74.49
2022-10-17T10:58:03.371Z,75.59
2022-10-17T11:00:33.940Z,74.64
2022-10-17T11:03:12.595Z,73.38
2022-10-17T11:05:44.682Z,73.26
2022-10-17T11:08:15.023Z,73.90
2022-10-17T11:10:49.310Z,75.29
2022-10-17T11:13:21.787Z,74.64
2022-10-17T11:15:53.513Z,73.61
2022-10-17T11:18:22.589Z,74.15
2022-10-17T11:20:53.655Z,74.02
2022-10-17T11:23:27.930Z,73.20
2022-10-17T11:25:57.032Z,72.21
2022-10-17T11:28:25.318Z,72.06
2022-10-17T11:30:56.158Z,71.72
2022-10-17T11:33:28.788Z,73.20
2022-10-17T11:36:02.415Z,73.67
2022-10-17T11:38:39.711Z,73.93
2022-10-17T11:41:09.301Z,73.28
2022-10-17T11:43:40.701Z,72.20
2022-10-17T11:46:15.290Z,68.83
2022-10-17T11:48:48.722Z,70.03
2022-10-17T11:54:11.079Z,71.92
2022-10-17T11:56:44.210Z,72.70
2022-10-17T11:59:36.187Z,72.63
2022-10-17T12:02:05.259Z,73.15
2022-10-17T12:04:49.422Z,68.44
2022-10-17T12:07:25.732Z,69.98
2022-10-17T12:09:57.762Z,70.00
2022-10-17T12:12:26.198Z,69.91
2022-10-17T12:14:53.524Z,71.54
2022-10-17T12:17:29.458Z,71.38
2022-10-17T12:20:25.899Z,72.35
2022-10-17T12:22:55.643Z,72.64
2022-10-17T12:25:24.198Z,73.18
2022-10-17T12:27:51.690Z,72.98
2022-10-17T12:30:24.637Z,74.20
2022-10-17T12:33:17.269Z,72.19
2022-10-17T12:35:43.802Z,72.13
2022-10-17T12:38:29.561Z,72.48
2022-10-17T12:41:04.681Z,72.56
2022-10-17T12:43:40.593Z,72.45
2022-10-17T12:46:11.499Z,73.11
2022-10-17T12:49:02.327Z,73.54
2022-10-17T12:51:37.652Z,73.19
2022-10-17T12:54:12.543Z,71.67
2022-10-17T12:56:40.432Z,70.86
2022-10-17T12:59:13.044Z,72.83
2022-10-17T13:01:40.398Z,71.18
2022-10-17T13:04:10.564Z,74.02
2022-10-17T13:06:44.161Z,72.83
2022-10-17T13:09:22.662Z,73.31
2022-10-17T13:11:49.766Z,74.21
2022-10-17T13:14:18.893Z,74.78
2022-10-17T13:16:51.768Z,74.85
2022-10-17T13:19:20.626Z,74.65
2022-10-17T13:21:50.762Z,75.35
2022-10-17T13:24:23.647Z,75.56
2022-10-17T13:26:50.172Z,76.23
2022-10-17T13:29:16.740Z,75.42
2022-10-17T13:31:44.733Z,76.31
2022-10-17T13:34:17.790Z,75.70
2022-10-17T13:36:48.819Z,76.41
2022-10-17T13:39:23.036Z,77.04
2022-10-17T13:41:56.594Z,78.04
2022-10-17T13:44:25.609Z,76.79
2022-10-17T13:46:52.768Z,76.85
2022-10-17T13:49:25.920Z,76.25
2022-10-17T13:51:55.984Z,75.89
2022-10-17T13:54:34.042Z,76.14
2022-10-17T13:57:03.404Z,76.06
2022-10-17T13:59:38.511Z,76.30
2022-10-17T14:02:06.096Z,76.05
2022-10-17T14:04:56.597Z,75.86
2022-10-17T14:07:26.603Z,75.52
2022-10-17T14:09:53.789Z,75.63
2022-10-17T14:12:22.763Z,74.77
2022-10-17T14:15:09.650Z,75.23
2022-10-17T14:17:36.604Z,75.35
2022-10-17T14:20:26.515Z,75.12
2022-10-17T14:23:17.478Z,75.58
2022-10-17T14:25:40.584Z,77.03
2022-10-17T14:28:15.106Z,76.81
2022-10-17T14:30:58.591Z,77.53
2022-10-17T14:33:28.158Z,77.13
2022-10-17T14:35:57.811Z,78.01
2022-10-17T14:38:25.209Z,77.16
2022-10-17T14:41:00.357Z,76.98
2022-10-17T14:43:37.672Z,77.30
2022-10-17T14:46:04.486Z,77.32
2022-10-17T14:48:31.130Z,77.52
2022-10-17T14:51:12.553Z,77.50
2022-10-17T14:53:40.196Z,77.89
2022-10-17T14:56:23.166Z,78.01
2022-10-17T14:58:51.062Z,78.87
2022-10-17T15:01:17.864Z,78.88
2022-10-17T15:03:44.490Z,78.95
2022-10-17T15:06:18.173Z,79.83
2022-10-17T15:08:44.701Z,80.56
2022-10-17T15:11:11.839Z,81.22
2022-10-17T15:13:43.303Z,81.20
2022-10-17T15:16:18.124Z,81.77
2022-10-17T15:18:44.653Z,82.68
2022-10-17T15:21:33.694Z,83.12
2022-10-17T15:23:59.313Z,83.21
2022-10-17T15:26:29.926Z,83.23
2022-10-17T15:28:56.512Z,83.86
2022-10-17T15:31:26.228Z,84.28
2022-10-17T15:33:53.502Z,84.84
2022-10-17T15:36:22.657Z,85.40
2022-10-17T15:38:50.366Z,85.57
2022-10-17T15:41:16.872Z,85.73
2022-10-17T15:43:43.603Z,85.57
2022-10-17T15:46:13.254Z,86.51
2022-10-17T15:48:41.769Z,87.06
2022-10-17T15:51:09.002Z,87.37
2022-10-17T15:53:35.837Z,87.59
2022-10-17T15:56:03.013Z,87.73
2022-10-17T15:58:35.679Z,89.11
2022-10-17T16:01:03.299Z,89.61
2022-10-17T16:03:29.921Z,90.64
2022-10-17T16:05:57.900Z,91.51
2022-10-17T16:08:24.453Z,90.93
2022-10-17T16:10:51.773Z,91.40
2022-10-17T16:13:20.742Z,91.62
2022-10-17T16:15:47.297Z,92.81
2022-10-17T16:18:14.199Z,93.28
2022-10-17T16:20:40.962Z,93.61
2022-10-17T16:23:12.490Z,94.14
2022-10-17T16:25:39.080Z,94.23
2022-10-17T16:28:05.724Z,94.44
2022-10-17T16:30:32.681Z,94.69
2022-10-17T16:32:59.449Z,95.02
2022-10-17T16:35:31.843Z,94.35
2022-10-17T16:38:01.550Z,94.35
2022-10-17T16:40:29.408Z,95.95
2022-10-17T16:42:55.947Z,96.29
2022-10-17T16:45:23.397Z,96.48
2022-10-17T16:47:50.135Z,96.01
2022-10-17T16:50:16.947Z,95.43
2022-10-17T16:52:43.495Z,95.35
2022-10-17T16:55:10.508Z,96.07
2022-10-17T16:57:38.455Z,96.21
2022-10-17T17:00:07.129Z,97.07
2022-10-17T17:02:33.983Z,97.35
2022-10-17T17:05:00.721Z,98.18
2022-10-17T17:07:27.580Z,98.38
2022-10-17T17:09:54.229Z,98.70
2022-10-17T17:12:20.722Z,99.53
2022-10-17T17:14:48.602Z,99.11
2022-10-17T17:17:24.462Z,98.89
2022-10-17T17:20:01.672Z,98.80
2022-10-17T17:22:28.205Z,98.51
2022-10-17T17:24:54.742Z,98.58
2022-10-17T17:27:21.280Z,98.99
2022-10-17T17:29:49.131Z,98.64
2022-10-17T17:32:15.642Z,98.11
2022-10-17T17:34:42.186Z,98.31
2022-10-17T17:37:08.719Z,97.98
2022-10-17T17:39:35.275Z,97.60
2022-10-17T17:42:01.808Z,97.02
2022-10-17T17:44:28.450Z,97.70
2022-10-17T17:46:56.303Z,97.41
2022-10-17T17:49:22.847Z,98.08
2022-10-17T17:51:49.429Z,98.48
2022-10-17T17:54:16.076Z,99.40
2022-10-17T17:56:42.768Z,99.45
2022-10-17T17:59:11.474Z,99.40
2022-10-17T18:01:38.175Z,98.87
2022-10-17T18:04:08.050Z,99.05
2022-10-17T18:06:35.281Z,99.05
2022-10-17T18:09:02.151Z,98.33
2022-10-17T18:11:29.275Z,98.90
2022-10-17T18:13:56.867Z,99.06
2022-10-17T18:16:23.495Z,99.24
2022-10-17T18:18:50.013Z,98.95
2022-10-17T18:21:17.910Z,98.35
2022-10-17T18:23:46.478Z,98.03
2022-10-17T18:26:13.599Z,97.98
2022-10-17T18:31:14.952Z,97.96
2022-10-17T18:33:41.880Z,97.10
2022-10-17T18:36:12.250Z,97.35
2022-10-17T18:38:40.260Z,97.22
2022-10-17T18:41:08.705Z,97.75
2022-10-17T18:43:36.088Z,98.30
2022-10-17T18:46:04.591Z,98.25
2022-10-17T18:48:32.183Z,98.22
2022-10-17T18:50:58.999Z,99.21
2022-10-17T18:53:25.676Z,99.71
2022-10-17T18:55:53.678Z,100.00
2022-10-17T18:58:20.210Z,100.00
2022-10-17T19:00:47.053Z,99.46
2022-10-17T19:03:14.840Z,99.74
2022-10-17T19:05:42.008Z,99.81
2022-10-17T19:08:08.522Z,99.33
2022-10-17T19:10:35.208Z,98.84
2022-10-17T19:13:03.432Z,98.65
2022-10-17T19:15:30.014Z,98.53
2022-10-17T19:17:56.519Z,99.04
2022-10-17T19:20:23.043Z,98.98
2022-10-17T19:22:49.614Z,98.36
2022-10-17T19:25:16.209Z,98.24
2022-10-17T19:27:42.777Z,98.34
2022-10-17T19:30:11.560Z,98.45
2022-10-17T19:32:38.226Z,98.76
2022-10-17T19:35:05.750Z,99.10
2022-10-17T19:37:32.599Z,99.19
2022-10-17T19:39:59.275Z,99.08
2022-10-17T19:42:25.782Z,98.77
2022-10-17T19:44:52.339Z,98.33
2022-10-17T19:47:20.213Z,98.36
2022-10-17T19:49:50.025Z,97.93
2022-10-17T19:52:16.742Z,97.97
2022-10-17T19:54:43.308Z,97.11
2022-10-17T19:57:10.630Z,97.40
2022-10-17T19:59:37.306Z,97.33
2022-10-17T20:02:03.894Z,97.04
2022-10-17T20:04:31.863Z,96.72
2022-10-17T20:06:58.559Z,98.38
2022-10-17T20:09:25.342Z,98.69
2022-10-17T20:11:51.922Z,98.40
2022-10-17T20:14:18.442Z,98.17
2022-10-17T20:16:44.984Z,97.94
2022-10-17T20:19:13.178Z,98.71
2022-10-17T20:21:42.581Z,99.87
2022-10-17T20:24:11.814Z,99.57
2022-10-17T20:26:39.663Z,99.83
2022-10-17T20:29:11.106Z,99.99
2022-10-17T20:31:38.144Z,99.49
2022-10-17T20:34:04.683Z,99.79
2022-10-17T20:36:31.207Z,100.00
2022-10-17T20:38:59.378Z,100.00
2022-10-17T20:41:26.603Z,100.00
2022-10-17T20:43:54.588Z,98.90
2022-10-17T20:46:35.163Z,98.66
2022-10-17T20:49:02.857Z,98.10
2022-10-17T20:51:29.557Z,98.70
2022-10-17T20:56:29.946Z,98.82
2022-10-17T20:58:58.857Z,98.53
2022-10-17T21:01:26.707Z,98.81
2022-10-17T21:03:53.651Z,98.86
2022-10-17T21:06:20.862Z,98.53
2022-10-17T21:08:47.862Z,98.31
2022-10-17T21:11:16.094Z,98.07
2022-10-17T21:13:45.104Z,97.77
2022-10-17T21:16:13.086Z,98.08
2022-10-17T21:18:40.424Z,99.07
2022-10-17T21:21:08.840Z,99.31
2022-10-17T21:23:35.616Z,99.29
2022-10-17T21:26:02.156Z,100.00
2022-10-17T21:28:28.702Z,99.67
2022-10-17T21:31:07.017Z,99.89
2022-10-17T21:33:33.528Z,100.00
2022-10-17T21:36:00.103Z,100.00
2022-10-17T21:38:26.625Z,100.00
2022-10-17T21:40:55.372Z,100.00
2022-10-17T21:43:22.946Z,100.00
2022-10-17T21:45:49.471Z,100.00
2022-10-17T21:48:17.503Z,100.00
2022-10-17T21:50:44.052Z,100.00
2022-10-17T21:53:10.555Z,100.00
2022-10-17T21:55:37.276Z,100.00
2022-10-17T21:58:04.517Z,100.00
2022-10-17T22:00:31.137Z,100.00
2022-10-17T22:02:57.658Z,100.00
2022-10-17T22:05:25.564Z,100.00
2022-10-17T22:07:52.082Z,100.00
2022-10-17T22:10:18.617Z,100.00
2022-10-17T22:12:45.157Z,100.00
2022-10-17T22:15:11.722Z,100.00
2022-10-17T22:17:38.282Z,100.00
2022-10-17T22:20:05.553Z,100.00
2022-10-17T22:22:33.423Z,100.00
2022-10-17T22:24:59.937Z,100.00
2022-10-17T22:27:26.507Z,100.00
2022-10-17T22:29:53.071Z,100.00
2022-10-17T22:32:22.382Z,100.00
2022-10-17T22:34:49.418Z,100.00
2022-10-17T22:37:15.947Z,100.00
2022-10-17T22:39:43.806Z,100.00
2022-10-17T22:42:10.374Z,100.00
2022-10-17T22:44:36.968Z,100.00
2022-10-17T22:47:03.646Z,100.00
2022-10-17T22:49:30.184Z,100.00
2022-10-17T22:51:56.676Z,100.00
2022-10-17T22:54:23.199Z,100.00
2022-10-17T22:56:51.099Z,100.00
2022-10-17T22:59:17.869Z,100.00
2022-10-17T23:01:44.437Z,100.00
2022-10-17T23:04:10.959Z,100.00
2022-10-17T23:06:37.478Z,100.00
2022-10-17T23:09:04.027Z,100.00
2022-10-17T23:11:30.584Z,100.00
2022-10-17T23:13:58.466Z,100.00
2022-10-17T23:16:25.019Z,100.00
2022-10-17T23:18:51.544Z,100.00
2022-10-17T23:21:18.123Z,100.00
2022-10-17T23:23:44.663Z,100.00
2022-10-17T23:26:14.180Z,100.00
2022-10-17T23:28:41.787Z,100.00
2022-10-17T23:31:11.460Z,100.00
2022-10-17T23:33:38.002Z,100.00
2022-10-17T23:36:04.855Z,100.00
2022-10-17T23:38:31.388Z,100.00
2022-10-17T23:40:57.955Z,100.00
2022-10-17T23:43:24.489Z,99.74
2022-10-17T23:45:51.033Z,99.96
2022-10-17T23:48:18.929Z,100.00
2022-10-17T23:50:45.482Z,100.00
2022-10-17T23:53:12.019Z,99.93
2022-10-17T23:55:38.589Z,99.70
2022-10-17T23:58:05.155Z,100.00
